createdAt,value
2022-12-19T00:04:08.161Z,99580.03
2022-12-19T00:09:30.560Z,99598.00
2022-12-19T00:14:54.254Z,99605.66
2022-12-19T00:20:18.524Z,99598.00
2022-12-19T00:25:40.430Z,99587.72
2022-12-19T00:31:04.858Z,99582.63
2022-12-19T00:36:28.850Z,99579.19
2022-12-19T00:41:50.533Z,99570.63
2022-12-19T00:47:12.233Z,99551.81
2022-12-19T00:52:33.930Z,99551.84
2022-12-19T00:57:55.694Z,99543.28
2022-12-19T01:03:21.365Z,99539.84
2022-12-19T01:08:43.505Z,99522.72
2022-12-19T01:14:05.540Z,99527.00
2022-12-19T01:19:27.578Z,99503.03
2022-12-19T01:24:49.306Z,99527.84
2022-12-19T01:30:11.791Z,99526.16
2022-12-19T01:35:34.179Z,99512.44
2022-12-19T01:40:57.515Z,99509.88
2022-12-19T01:46:25.988Z,99509.88
2022-12-19T01:51:53.717Z,99498.72
2022-12-19T01:57:18.075Z,99490.16
2022-12-19T02:02:49.075Z,99473.03
2022-12-19T02:08:10.939Z,99476.44
2022-12-19T02:13:32.998Z,99472.19
2022-12-19T02:19:18.574Z,99475.59
2022-12-19T02:24:59.912Z,99473.03
2022-12-19T02:30:59.330Z,99468.75
2022-12-19T02:36:38.948Z,99476.44
2022-12-19T02:42:05.575Z,99460.16
2022-12-19T02:47:29.839Z,99444.75
2022-12-19T02:52:51.572Z,99460.16
2022-12-19T02:58:41.342Z,99459.31
2022-12-19T03:04:08.632Z,99468.72
2022-12-19T03:09:45.272Z,99455.88
2022-12-19T03:15:11.252Z,99429.28
2022-12-19T03:21:17.748Z,99467.00
2022-12-19T03:26:49.430Z,99465.28
2022-12-19T03:32:15.306Z,99480.72
2022-12-19T03:37:40.858Z,99484.13
2022-12-19T03:43:09.243Z,99489.25
2022-12-19T03:48:52.632Z,99461.81
2022-12-19T03:54:20.848Z,99470.38
2022-12-19T04:00:09.038Z,99468.66
2022-12-19T04:05:32.048Z,99460.06
2022-12-19T04:10:59.237Z,99471.22
2022-12-19T04:16:31.883Z,99489.25
2022-12-19T04:22:07.698Z,99475.47
2022-12-19T04:27:32.280Z,99474.63
2022-12-19T04:32:54.007Z,99485.69
2022-12-19T04:38:15.798Z,99479.72
2022-12-19T04:43:37.543Z,99481.44
2022-12-19T04:48:59.339Z,99473.66
2022-12-19T04:54:21.611Z,99470.19
2022-12-19T04:59:43.389Z,99468.41
2022-12-19T05:05:05.506Z,99462.44
2022-12-19T05:10:27.336Z,99456.38
2022-12-19T05:16:06.155Z,99452.84
2022-12-19T05:21:27.964Z,99447.78
2022-12-19T05:26:50.188Z,99446.97
2022-12-19T05:32:11.970Z,99441.00
2022-12-19T05:37:33.738Z,99449.56
2022-12-19T05:42:55.456Z,99456.38
2022-12-19T05:48:17.197Z,99450.31
2022-12-19T05:53:40.149Z,99441.69
2022-12-19T05:59:01.871Z,99445.09
2022-12-19T06:04:23.671Z,99436.47
2022-12-19T06:09:45.386Z,99427.84
2022-12-19T06:15:07.536Z,99424.44
2022-12-19T06:20:29.293Z,99425.31
2022-12-19T06:25:51.027Z,99422.78
2022-12-19T06:31:13.361Z,99427.91
2022-12-19T06:36:35.201Z,99419.31
2022-12-19T06:42:15.595Z,99420.97
2022-12-19T06:47:37.423Z,99412.34
2022-12-19T06:52:59.966Z,99410.63
2022-12-19T06:58:24.496Z,99413.16
2022-12-19T07:03:48.588Z,99414.06
2022-12-19T07:09:10.858Z,99417.47
2022-12-19T07:14:33.737Z,99409.72
2022-12-19T07:19:57.591Z,99417.34
2022-12-19T07:25:19.441Z,99417.28
2022-12-19T07:30:41.200Z,99413.78
2022-12-19T07:36:04.307Z,99418.09
2022-12-19T07:41:26.078Z,99430.16
2022-12-19T07:46:48.049Z,99429.34
2022-12-19T07:52:10.158Z,99418.16
2022-12-19T07:57:31.989Z,99419.75
2022-12-19T08:02:54.042Z,99419.63
2022-12-19T08:08:16.553Z,99423.84
2022-12-19T08:13:43.259Z,99423.84
2022-12-19T08:19:08.095Z,99439.28
2022-12-19T08:24:30.915Z,99440.97
2022-12-19T08:29:53.003Z,99449.38
2022-12-19T08:35:14.811Z,99447.63
2022-12-19T08:40:36.577Z,99432.94
2022-12-19T08:45:59.079Z,99437.91
2022-12-19T08:51:20.945Z,99422.22
2022-12-19T08:56:46.418Z,99423.94
2022-12-19T09:02:09.788Z,99425.56
2022-12-19T09:07:31.697Z,99416.25
2022-12-19T09:12:56.214Z,99403.31
2022-12-19T09:18:19.858Z,99411.09
2022-12-19T09:23:51.773Z,99411.69
2022-12-19T09:29:21.270Z,99419.38
2022-12-19T09:34:43.529Z,99416.97
2022-12-19T09:40:05.899Z,99415.97
2022-12-19T09:45:32.249Z,99408.91
2022-12-19T09:51:09.975Z,99412.38
2022-12-19T09:56:45.908Z,99404.59
2022-12-19T10:02:27.878Z,99401.03
2022-12-19T10:08:07.688Z,99395.09
2022-12-19T10:14:12.230Z,99390.56
2022-12-19T10:19:40.453Z,99368.63
2022-12-19T10:25:20.322Z,99363.09
2022-12-19T10:31:23.050Z,99361.25
2022-12-19T10:37:27.131Z,99361.22
2022-12-19T10:43:10.852Z,99339.56
2022-12-19T10:48:34.542Z,99345.63
2022-12-19T10:53:58.763Z,99351.63
2022-12-19T10:59:21.209Z,99355.22
2022-12-19T11:04:43.086Z,99327.44
2022-12-19T11:12:01.913Z,99310.94
2022-12-19T11:22:05.269Z,99316.09
2022-12-19T11:30:07.045Z,99314.63
2022-12-19T11:30:45.890Z,99318.19
2022-12-19T11:34:06.027Z,99299.69
2022-12-19T11:39:31.674Z,99301.50
2022-12-19T11:45:02.723Z,99280.38
2022-12-19T11:50:58.923Z,99273.31
2022-12-19T11:56:24.804Z,99267.16
2022-12-19T12:01:58.639Z,99264.53
2022-12-19T12:08:17.704Z,99270.56
2022-12-19T12:20:03.400Z,99268.00
2022-12-19T12:31:32.197Z,99258.53
2022-12-19T12:32:03.519Z,99264.53
2022-12-19T12:35:36.476Z,99245.22
2022-12-19T12:42:48.429Z,99239.97
2022-12-19T12:48:43.346Z,99219.09
2022-12-19T12:54:09.477Z,99226.06
2022-12-19T12:59:31.795Z,99234.69
2022-12-19T13:05:00.311Z,99222.34
2022-12-19T13:10:32.234Z,99208.22
2022-12-19T13:15:53.999Z,99202.81
2022-12-19T13:21:17.981Z,99213.91
2022-12-19T13:26:49.994Z,99211.22
2022-12-19T13:32:16.304Z,99213.78
2022-12-19T13:39:54.910Z,99212.81
2022-12-19T13:43:45.942Z,99215.88
2022-12-19T13:49:17.282Z,99210.91
2022-12-19T13:54:51.105Z,99220.34
2022-12-19T14:00:18.556Z,99221.91
2022-12-19T14:06:18.738Z,99221.28
2022-12-19T14:11:45.040Z,99223.09
2022-12-19T14:17:12.163Z,99226.28
2022-12-19T14:22:33.934Z,99220.50
2022-12-19T14:28:18.862Z,99228.06
2022-12-19T14:39:34.794Z,99224.38
2022-12-19T14:52:34.604Z,99235.50
2022-12-19T14:54:20.820Z,99224.06
2022-12-19T14:56:58.591Z,99223.19
2022-12-19T15:02:06.105Z,99229.97
2022-12-19T15:07:30.126Z,99224.63
2022-12-19T15:14:48.855Z,99227.00
2022-12-19T15:18:57.547Z,99213.13
2022-12-19T15:24:19.349Z,99208.06
2022-12-19T15:29:42.205Z,99217.75
2022-12-19T15:35:11.022Z,99209.94
2022-12-19T15:40:32.867Z,99207.19
2022-12-19T15:45:58.735Z,99213.16
2022-12-19T15:51:20.510Z,99218.44
2022-12-19T15:56:47.907Z,99211.69
2022-12-19T16:02:22.016Z,99201.22
2022-12-19T16:07:44.199Z,99207.66
2022-12-19T16:13:06.021Z,99202.41
2022-12-19T16:18:27.768Z,99205.09
2022-12-19T16:23:49.563Z,99196.72
2022-12-19T16:29:19.732Z,99192.13
2022-12-19T16:34:41.546Z,99187.22
2022-12-19T16:40:03.548Z,99181.31
2022-12-19T16:45:26.587Z,99186.78
2022-12-19T16:50:49.158Z,99192.00
2022-12-19T16:56:41.662Z,99176.53
2022-12-19T17:02:16.785Z,99169.19
2022-12-19T17:07:39.152Z,99177.28
2022-12-19T17:13:02.877Z,99179.06
2022-12-19T17:18:33.054Z,99176.16
2022-12-19T17:23:54.864Z,99176.84
2022-12-19T17:29:16.636Z,99178.31
2022-12-19T17:34:38.471Z,99188.56
2022-12-19T17:40:00.219Z,99187.59
2022-12-19T17:45:23.527Z,99182.22
2022-12-19T17:50:45.297Z,99190.09
2022-12-19T17:56:13.556Z,99198.19
2022-12-19T18:01:35.772Z,99189.66
2022-12-19T18:06:57.573Z,99182.75
2022-12-19T18:12:19.475Z,99175.81
2022-12-19T18:17:41.851Z,99185.28
2022-12-19T18:23:15.399Z,99194.09
2022-12-19T18:28:37.913Z,99201.09
2022-12-19T18:34:07.067Z,99199.38
2022-12-19T18:39:31.165Z,99202.03
2022-12-19T18:44:52.923Z,99193.34
2022-12-19T18:50:18.189Z,99190.53
2022-12-19T18:55:40.079Z,99184.72
2022-12-19T19:01:04.791Z,99181.41
2022-12-19T19:06:29.211Z,99184.13
2022-12-19T19:11:52.110Z,99188.44
2022-12-19T19:17:28.112Z,99183.19
2022-12-19T19:22:51.079Z,99176.84
2022-12-19T19:28:12.848Z,99182.75
2022-12-19T19:33:39.880Z,99173.22
2022-12-19T19:39:03.064Z,99173.94
2022-12-19T19:44:24.874Z,99169.53
2022-12-19T19:49:46.670Z,99169.38
2022-12-19T19:55:09.675Z,99164.00
2022-12-19T20:00:31.489Z,99167.19
2022-12-19T20:06:00.806Z,99159.53
2022-12-19T20:11:22.581Z,99158.56
2022-12-19T20:16:44.432Z,99155.94
2022-12-19T20:22:06.454Z,99154.19
2022-12-19T20:27:28.312Z,99166.25
2022-12-19T20:32:50.303Z,99170.31
2022-12-19T20:38:12.223Z,99176.50
2022-12-19T20:43:34.311Z,99182.69
2022-12-19T20:48:57.306Z,99178.38
2022-12-19T20:54:19.410Z,99174.19
2022-12-19T20:59:41.226Z,99168.84
2022-12-19T21:05:05.198Z,99171.97
2022-12-19T21:10:27.015Z,99174.50
2022-12-19T21:16:01.936Z,99175.41
2022-12-19T21:21:26.264Z,99164.47
2022-12-19T21:26:56.126Z,99176.78
2022-12-19T21:32:19.944Z,99181.28
2022-12-19T21:37:43.863Z,99182.97
2022-12-19T21:43:11.688Z,99186.81
2022-12-19T21:48:37.130Z,99180.06
2022-12-19T21:54:01.045Z,99187.34
2022-12-19T21:59:22.924Z,99196.88
2022-12-19T22:04:44.769Z,99209.25
2022-12-19T22:10:07.302Z,99205.06
2022-12-19T22:15:29.022Z,99200.25
2022-12-19T22:20:50.804Z,99198.72
2022-12-19T22:26:14.131Z,99194.44
2022-12-19T22:31:37.779Z,99190.16
2022-12-19T22:36:59.993Z,99196.09
2022-12-19T22:42:21.778Z,99190.91
2022-12-19T22:47:43.733Z,99197.00
2022-12-19T22:53:09.493Z,99188.41
2022-12-19T22:58:38.297Z,99175.34
2022-12-19T23:04:02.315Z,99170.31
2022-12-19T23:09:24.220Z,99177.22
2022-12-19T23:14:45.949Z,99177.25
2022-12-19T23:20:08.941Z,99179.63
2022-12-19T23:25:31.509Z,99179.72
2022-12-19T23:31:05.505Z,99162.66
2022-12-19T23:37:08.418Z,99170.34
2022-12-19T23:42:10.143Z,99168.44
2022-12-19T23:47:31.919Z,99163.06
2022-12-19T23:52:53.662Z,99159.41
2022-12-19T23:58:20.763Z,99171.31
